sensor_id;sensor_type;location;lat;lon;timestamp;P1;durP1;ratioP1;P2;durP2;ratioP2
59468;SDS011;45277;52.768;18.262;2023-10-19T00:00:37;32.17;;;16.45;;
59468;SDS011;45277;52.768;18.262;2023-10-19T00:02:35;32.65;;;17.20;;
59468;SDS011;45277;52.768;18.262;2023-10-19T00:04:07;29.80;;;17.05;;
59468;SDS011;45277;52.768;18.262;2023-10-19T00:05:40;30.73;;;16.10;;
59468;SDS011;45277;52.768;18.262;2023-10-19T00:07:12;36.28;;;16.40;;
59468;SDS011;45277;52.768;18.262;2023-10-19T00:08:46;30.67;;;15.68;;
59468;SDS011;45277;52.768;18.262;2023-10-19T00:10:17;34.67;;;16.70;;
59468;SDS011;45277;52.768;18.262;2023-10-19T00:11:49;31.05;;;16.67;;
59468;SDS011;45277;52.768;18.262;2023-10-19T00:13:22;30.23;;;15.18;;
59468;SDS011;45277;52.768;18.262;2023-10-19T00:14:53;28.73;;;16.15;;
59468;SDS011;45277;52.768;18.262;2023-10-19T00:16:25;32.38;;;17.30;;
59468;SDS011;45277;52.768;18.262;2023-10-19T00:18:06;26.48;;;16.52;;
59468;SDS011;45277;52.768;18.262;2023-10-19T00:19:46;33.10;;;17.63;;
59468;SDS011;45277;52.768;18.262;2023-10-19T00:21:41;32.20;;;19.15;;
59468;SDS011;45277;52.768;18.262;2023-10-19T00:23:25;32.85;;;18.10;;
59468;SDS011;45277;52.768;18.262;2023-10-19T00:25:06;39.53;;;19.38;;
59468;SDS011;45277;52.768;18.262;2023-10-19T00:26:40;30.80;;;17.42;;
59468;SDS011;45277;52.768;18.262;2023-10-19T00:28:11;37.25;;;17.90;;
59468;SDS011;45277;52.768;18.262;2023-10-19T00:29:45;34.67;;;18.10;;
59468;SDS011;45277;52.768;18.262;2023-10-19T00:31:20;33.40;;;17.45;;
59468;SDS011;45277;52.768;18.262;2023-10-19T00:32:52;32.67;;;19.02;;
59468;SDS011;45277;52.768;18.262;2023-10-19T00:34:25;42.55;;;19.98;;
59468;SDS011;45277;52.768;18.262;2023-10-19T00:36:00;42.95;;;19.63;;
59468;SDS011;45277;52.768;18.262;2023-10-19T00:37:38;36.78;;;17.20;;
59468;SDS011;45277;52.768;18.262;2023-10-19T00:39:13;39.15;;;18.75;;
59468;SDS011;45277;52.768;18.262;2023-10-19T00:40:51;49.13;;;21.65;;
59468;SDS011;45277;52.768;18.262;2023-10-19T00:42:52;44.95;;;19.75;;
59468;SDS011;45277;52.768;18.262;2023-10-19T00:44:26;39.17;;;19.65;;
59468;SDS011;45277;52.768;18.262;2023-10-19T00:46:09;38.28;;;20.25;;
59468;SDS011;45277;52.768;18.262;2023-10-19T00:47:50;39.30;;;20.67;;
59468;SDS011;45277;52.768;18.262;2023-10-19T00:49:23;40.92;;;20.50;;
59468;SDS011;45277;52.768;18.262;2023-10-19T00:50:55;41.05;;;20.48;;
59468;SDS011;45277;52.768;18.262;2023-10-19T00:52:37;39.83;;;19.48;;
59468;SDS011;45277;52.768;18.262;2023-10-19T00:54:21;37.45;;;18.75;;
59468;SDS011;45277;52.768;18.262;2023-10-19T00:56:02;39.97;;;19.75;;
59468;SDS011;45277;52.768;18.262;2023-10-19T00:57:40;45.20;;;20.20;;
59468;SDS011;45277;52.768;18.262;2023-10-19T00:59:19;40.75;;;21.20;;
59468;SDS011;45277;52.768;18.262;2023-10-19T01:00:51;39.13;;;20.20;;
59468;SDS011;45277;52.768;18.262;2023-10-19T01:02:25;39.85;;;20.35;;
59468;SDS011;45277;52.768;18.262;2023-10-19T01:03:57;37.70;;;19.55;;
59468;SDS011;45277;52.768;18.262;2023-10-19T01:05:29;47.75;;;22.17;;
59468;SDS011;45277;52.768;18.262;2023-10-19T01:07:06;42.72;;;22.23;;
59468;SDS011;45277;52.768;18.262;2023-10-19T01:08:42;35.80;;;21.02;;
59468;SDS011;45277;52.768;18.262;2023-10-19T01:10:14;36.97;;;21.33;;
59468;SDS011;45277;52.768;18.262;2023-10-19T01:11:51;46.00;;;21.20;;
59468;SDS011;45277;52.768;18.262;2023-10-19T01:13:22;38.65;;;20.52;;
59468;SDS011;45277;52.768;18.262;2023-10-19T01:15:09;38.40;;;20.80;;
59468;SDS011;45277;52.768;18.262;2023-10-19T01:16:47;39.78;;;20.83;;
59468;SDS011;45277;52.768;18.262;2023-10-19T01:18:20;38.95;;;21.60;;
59468;SDS011;45277;52.768;18.262;2023-10-19T01:19:53;42.92;;;22.38;;
59468;SDS011;45277;52.768;18.262;2023-10-19T01:21:24;44.78;;;23.55;;
59468;SDS011;45277;52.768;18.262;2023-10-19T01:23:08;48.03;;;23.02;;
59468;SDS011;45277;52.768;18.262;2023-10-19T01:24:40;43.45;;;22.73;;
59468;SDS011;45277;52.768;18.262;2023-10-19T01:26:11;45.45;;;23.40;;
59468;SDS011;45277;52.768;18.262;2023-10-19T01:27:48;41.42;;;22.10;;
59468;SDS011;45277;52.768;18.262;2023-10-19T01:29:25;43.28;;;22.10;;
59468;SDS011;45277;52.768;18.262;2023-10-19T01:30:59;47.50;;;24.20;;
59468;SDS011;45277;52.768;18.262;2023-10-19T01:32:36;45.53;;;23.25;;
59468;SDS011;45277;52.768;18.262;2023-10-19T01:34:09;45.28;;;23.08;;
59468;SDS011;45277;52.768;18.262;2023-10-19T01:35:41;44.80;;;23.25;;
59468;SDS011;45277;52.768;18.262;2023-10-19T01:37:31;42.65;;;23.40;;
59468;SDS011;45277;52.768;18.262;2023-10-19T01:39:08;42.28;;;24.02;;
59468;SDS011;45277;52.768;18.262;2023-10-19T01:40:41;46.95;;;23.88;;
59468;SDS011;45277;52.768;18.262;2023-10-19T01:42:16;39.53;;;23.00;;
59468;SDS011;45277;52.768;18.262;2023-10-19T01:43:49;49.80;;;23.20;;
59468;SDS011;45277;52.768;18.262;2023-10-19T01:45:24;43.30;;;23.45;;
59468;SDS011;45277;52.768;18.262;2023-10-19T01:46:55;46.05;;;22.30;;
59468;SDS011;45277;52.768;18.262;2023-10-19T01:48:27;39.33;;;20.58;;
59468;SDS011;45277;52.768;18.262;2023-10-19T01:50:04;43.70;;;22.60;;
59468;SDS011;45277;52.768;18.262;2023-10-19T01:51:36;45.33;;;23.13;;
59468;SDS011;45277;52.768;18.262;2023-10-19T01:53:11;40.42;;;23.35;;
59468;SDS011;45277;52.768;18.262;2023-10-19T01:54:48;40.55;;;21.90;;
59468;SDS011;45277;52.768;18.262;2023-10-19T01:56:26;41.05;;;22.75;;
59468;SDS011;45277;52.768;18.262;2023-10-19T01:57:58;42.58;;;22.33;;
59468;SDS011;45277;52.768;18.262;2023-10-19T01:59:29;37.58;;;22.17;;
59468;SDS011;45277;52.768;18.262;2023-10-19T02:01:01;45.08;;;22.88;;
59468;SDS011;45277;52.768;18.262;2023-10-19T02:02:39;37.53;;;21.27;;
59468;SDS011;45277;52.768;18.262;2023-10-19T02:04:10;38.95;;;21.80;;
59468;SDS011;45277;52.768;18.262;2023-10-19T02:05:43;44.10;;;23.13;;
59468;SDS011;45277;52.768;18.262;2023-10-19T02:07:15;36.35;;;21.67;;
59468;SDS011;45277;52.768;18.262;2023-10-19T02:08:49;37.95;;;22.15;;
59468;SDS011;45277;52.768;18.262;2023-10-19T02:10:22;44.05;;;22.45;;
59468;SDS011;45277;52.768;18.262;2023-10-19T02:11:54;35.75;;;20.27;;
59468;SDS011;45277;52.768;18.262;2023-10-19T02:13:27;35.05;;;20.02;;
59468;SDS011;45277;52.768;18.262;2023-10-19T02:14:58;37.80;;;20.55;;
59468;SDS011;45277;52.768;18.262;2023-10-19T02:16:30;39.90;;;22.30;;
59468;SDS011;45277;52.768;18.262;2023-10-19T02:18:03;34.83;;;20.00;;
59468;SDS011;45277;52.768;18.262;2023-10-19T02:19:35;40.05;;;20.95;;
59468;SDS011;45277;52.768;18.262;2023-10-19T02:21:06;33.60;;;20.88;;
59468;SDS011;45277;52.768;18.262;2023-10-19T02:22:37;35.72;;;19.75;;
59468;SDS011;45277;52.768;18.262;2023-10-19T02:24:09;33.30;;;19.92;;
59468;SDS011;45277;52.768;18.262;2023-10-19T02:25:45;33.53;;;19.65;;
59468;SDS011;45277;52.768;18.262;2023-10-19T02:27:16;32.40;;;19.15;;
59468;SDS011;45277;52.768;18.262;2023-10-19T02:28:48;32.70;;;18.88;;
59468;SDS011;45277;52.768;18.262;2023-10-19T02:30:21;34.15;;;18.83;;
59468;SDS011;45277;52.768;18.262;2023-10-19T02:31:55;32.60;;;17.58;;
59468;SDS011;45277;52.768;18.262;2023-10-19T02:33:28;31.48;;;17.48;;
59468;SDS011;45277;52.768;18.262;2023-10-19T02:35:00;33.97;;;17.48;;
59468;SDS011;45277;52.768;18.262;2023-10-19T02:36:33;33.22;;;18.52;;
59468;SDS011;45277;52.768;18.262;2023-10-19T02:38:04;29.92;;;16.45;;
59468;SDS011;45277;52.768;18.262;2023-10-19T02:39:36;32.92;;;16.25;;
59468;SDS011;45277;52.768;18.262;2023-10-19T02:41:07;27.98;;;16.17;;
59468;SDS011;45277;52.768;18.262;2023-10-19T02:42:40;29.10;;;16.65;;
59468;SDS011;45277;52.768;18.262;2023-10-19T02:44:12;34.28;;;16.83;;
59468;SDS011;45277;52.768;18.262;2023-10-19T02:45:48;29.95;;;16.55;;
59468;SDS011;45277;52.768;18.262;2023-10-19T02:47:19;29.58;;;16.70;;
59468;SDS011;45277;52.768;18.262;2023-10-19T02:48:51;32.70;;;17.83;;
59468;SDS011;45277;52.768;18.262;2023-10-19T02:50:22;28.63;;;17.15;;
59468;SDS011;45277;52.768;18.262;2023-10-19T02:51:56;31.40;;;16.45;;
59468;SDS011;45277;52.768;18.262;2023-10-19T02:53:34;33.05;;;17.75;;
59468;SDS011;45277;52.768;18.262;2023-10-19T02:55:08;35.97;;;17.30;;
59468;SDS011;45277;52.768;18.262;2023-10-19T02:56:42;38.40;;;17.13;;
59468;SDS011;45277;52.768;18.262;2023-10-19T02:58:18;35.33;;;17.35;;
59468;SDS011;45277;52.768;18.262;2023-10-19T02:59:49;34.88;;;17.67;;
59468;SDS011;45277;52.768;18.262;2023-10-19T03:01:21;35.55;;;18.25;;
59468;SDS011;45277;52.768;18.262;2023-10-19T03:02:53;33.45;;;18.33;;
59468;SDS011;45277;52.768;18.262;2023-10-19T03:04:24;35.47;;;17.85;;
59468;SDS011;45277;52.768;18.262;2023-10-19T03:05:56;36.17;;;19.27;;
59468;SDS011;45277;52.768;18.262;2023-10-19T03:07:30;37.50;;;19.48;;
59468;SDS011;45277;52.768;18.262;2023-10-19T03:09:05;36.17;;;18.55;;
59468;SDS011;45277;52.768;18.262;2023-10-19T03:10:56;36.90;;;19.90;;
59468;SDS011;45277;52.768;18.262;2023-10-19T03:12:44;38.22;;;20.10;;
59468;SDS011;45277;52.768;18.262;2023-10-19T03:14:15;36.88;;;19.17;;
59468;SDS011;45277;52.768;18.262;2023-10-19T03:15:47;36.10;;;18.80;;
59468;SDS011;45277;52.768;18.262;2023-10-19T03:17:19;35.13;;;19.70;;
59468;SDS011;45277;52.768;18.262;2023-10-19T03:18:50;35.88;;;19.00;;
59468;SDS011;45277;52.768;18.262;2023-10-19T03:20:22;36.78;;;20.33;;
59468;SDS011;45277;52.768;18.262;2023-10-19T03:21:55;35.80;;;20.08;;
59468;SDS011;45277;52.768;18.262;2023-10-19T03:23:26;34.00;;;19.95;;
59468;SDS011;45277;52.768;18.262;2023-10-19T03:24:59;34.15;;;20.25;;
59468;SDS011;45277;52.768;18.262;2023-10-19T03:26:45;36.25;;;19.33;;
59468;SDS011;45277;52.768;18.262;2023-10-19T03:28:19;37.22;;;20.38;;
59468;SDS011;45277;52.768;18.262;2023-10-19T03:29:51;39.10;;;19.95;;
59468;SDS011;45277;52.768;18.262;2023-10-19T03:31:26;33.90;;;20.90;;
59468;SDS011;45277;52.768;18.262;2023-10-19T03:32:57;32.72;;;19.92;;
59468;SDS011;45277;52.768;18.262;2023-10-19T03:34:30;36.85;;;19.05;;
59468;SDS011;45277;52.768;18.262;2023-10-19T03:36:03;35.63;;;19.38;;
59468;SDS011;45277;52.768;18.262;2023-10-19T03:37:35;39.67;;;20.65;;
59468;SDS011;45277;52.768;18.262;2023-10-19T03:39:06;38.65;;;19.60;;
59468;SDS011;45277;52.768;18.262;2023-10-19T03:40:45;35.38;;;19.77;;
59468;SDS011;45277;52.768;18.262;2023-10-19T03:42:22;37.33;;;19.42;;
59468;SDS011;45277;52.768;18.262;2023-10-19T03:43:56;34.50;;;19.40;;
59468;SDS011;45277;52.768;18.262;2023-10-19T03:45:29;39.35;;;20.73;;
59468;SDS011;45277;52.768;18.262;2023-10-19T03:47:04;39.75;;;20.60;;
59468;SDS011;45277;52.768;18.262;2023-10-19T03:48:36;36.78;;;21.23;;
59468;SDS011;45277;52.768;18.262;2023-10-19T03:50:10;38.38;;;20.02;;
59468;SDS011;45277;52.768;18.262;2023-10-19T03:51:46;35.72;;;21.02;;
59468;SDS011;45277;52.768;18.262;2023-10-19T03:53:40;36.83;;;20.52;;
59468;SDS011;45277;52.768;18.262;2023-10-19T03:55:19;37.70;;;20.38;;
59468;SDS011;45277;52.768;18.262;2023-10-19T03:56:54;42.75;;;21.40;;
59468;SDS011;45277;52.768;18.262;2023-10-19T03:58:32;34.10;;;19.75;;
59468;SDS011;45277;52.768;18.262;2023-10-19T04:00:05;38.78;;;20.75;;
59468;SDS011;45277;52.768;18.262;2023-10-19T04:01:41;36.58;;;21.90;;
59468;SDS011;45277;52.768;18.262;2023-10-19T04:03:14;38.20;;;20.30;;
59468;SDS011;45277;52.768;18.262;2023-10-19T04:04:48;38.05;;;20.15;;
59468;SDS011;45277;52.768;18.262;2023-10-19T04:06:19;36.63;;;20.38;;
59468;SDS011;45277;52.768;18.262;2023-10-19T04:07:51;42.35;;;21.52;;
59468;SDS011;45277;52.768;18.262;2023-10-19T04:09:26;34.63;;;21.33;;
59468;SDS011;45277;52.768;18.262;2023-10-19T04:11:00;39.47;;;21.50;;
59468;SDS011;45277;52.768;18.262;2023-10-19T04:12:51;43.95;;;23.20;;
59468;SDS011;45277;52.768;18.262;2023-10-19T04:14:25;37.55;;;20.77;;
59468;SDS011;45277;52.768;18.262;2023-10-19T04:15:56;39.13;;;22.38;;
59468;SDS011;45277;52.768;18.262;2023-10-19T04:17:27;37.50;;;20.85;;
59468;SDS011;45277;52.768;18.262;2023-10-19T04:18:59;41.47;;;21.95;;
59468;SDS011;45277;52.768;18.262;2023-10-19T04:20:30;39.20;;;20.95;;
59468;SDS011;45277;52.768;18.262;2023-10-19T04:22:27;37.42;;;20.98;;
59468;SDS011;45277;52.768;18.262;2023-10-19T04:24:01;44.35;;;22.08;;
59468;SDS011;45277;52.768;18.262;2023-10-19T04:25:32;40.58;;;22.45;;
59468;SDS011;45277;52.768;18.262;2023-10-19T04:27:04;41.20;;;21.77;;
59468;SDS011;45277;52.768;18.262;2023-10-19T04:28:37;48.55;;;23.00;;
59468;SDS011;45277;52.768;18.262;2023-10-19T04:30:20;43.78;;;22.33;;
59468;SDS011;45277;52.768;18.262;2023-10-19T04:31:57;43.25;;;21.95;;
59468;SDS011;45277;52.768;18.262;2023-10-19T04:33:30;41.42;;;22.35;;
59468;SDS011;45277;52.768;18.262;2023-10-19T04:35:02;40.42;;;21.30;;
59468;SDS011;45277;52.768;18.262;2023-10-19T04:36:34;41.08;;;21.48;;
59468;SDS011;45277;52.768;18.262;2023-10-19T04:38:06;44.38;;;22.20;;
59468;SDS011;45277;52.768;18.262;2023-10-19T04:39:37;42.63;;;21.65;;
59468;SDS011;45277;52.768;18.262;2023-10-19T04:41:09;47.58;;;22.38;;
59468;SDS011;45277;52.768;18.262;2023-10-19T04:42:41;41.28;;;21.90;;
59468;SDS011;45277;52.768;18.262;2023-10-19T04:44:13;40.33;;;20.83;;
59468;SDS011;45277;52.768;18.262;2023-10-19T04:45:45;46.30;;;22.33;;
59468;SDS011;45277;52.768;18.262;2023-10-19T04:47:17;45.28;;;24.00;;
59468;SDS011;45277;52.768;18.262;2023-10-19T04:48:48;44.55;;;22.88;;
59468;SDS011;45277;52.768;18.262;2023-10-19T04:50:20;37.22;;;19.90;;
59468;SDS011;45277;52.768;18.262;2023-10-19T04:51:52;40.03;;;20.75;;
59468;SDS011;45277;52.768;18.262;2023-10-19T04:53:24;43.00;;;19.63;;
59468;SDS011;45277;52.768;18.262;2023-10-19T04:54:55;35.67;;;19.55;;
59468;SDS011;45277;52.768;18.262;2023-10-19T04:56:27;34.88;;;19.00;;
59468;SDS011;45277;52.768;18.262;2023-10-19T04:57:59;36.60;;;19.80;;
59468;SDS011;45277;52.768;18.262;2023-10-19T04:59:30;37.45;;;19.52;;
59468;SDS011;45277;52.768;18.262;2023-10-19T05:01:05;38.38;;;20.05;;
59468;SDS011;45277;52.768;18.262;2023-10-19T05:02:37;38.13;;;19.45;;
59468;SDS011;45277;52.768;18.262;2023-10-19T05:04:08;38.53;;;20.27;;
59468;SDS011;45277;52.768;18.262;2023-10-19T05:05:40;39.63;;;20.42;;
59468;SDS011;45277;52.768;18.262;2023-10-19T05:07:11;41.60;;;19.77;;
59468;SDS011;45277;52.768;18.262;2023-10-19T05:08:45;37.78;;;20.70;;
59468;SDS011;45277;52.768;18.262;2023-10-19T05:10:18;42.30;;;22.05;;
59468;SDS011;45277;52.768;18.262;2023-10-19T05:11:50;44.17;;;22.10;;
59468;SDS011;45277;52.768;18.262;2023-10-19T05:13:23;40.13;;;21.35;;
59468;SDS011;45277;52.768;18.262;2023-10-19T05:14:56;37.15;;;20.52;;
59468;SDS011;45277;52.768;18.262;2023-10-19T05:16:27;35.85;;;21.05;;
59468;SDS011;45277;52.768;18.262;2023-10-19T05:17:58;42.97;;;21.13;;
59468;SDS011;45277;52.768;18.262;2023-10-19T05:19:34;35.33;;;19.27;;
59468;SDS011;45277;52.768;18.262;2023-10-19T05:21:06;39.83;;;19.88;;
59468;SDS011;45277;52.768;18.262;2023-10-19T05:22:37;36.42;;;19.95;;
59468;SDS011;45277;52.768;18.262;2023-10-19T05:24:10;35.40;;;19.88;;
59468;SDS011;45277;52.768;18.262;2023-10-19T05:25:41;36.20;;;20.00;;
59468;SDS011;45277;52.768;18.262;2023-10-19T05:27:13;42.50;;;20.77;;
59468;SDS011;45277;52.768;18.262;2023-10-19T05:28:45;36.17;;;19.05;;
59468;SDS011;45277;52.768;18.262;2023-10-19T05:30:18;36.30;;;19.65;;
59468;SDS011;45277;52.768;18.262;2023-10-19T05:31:53;42.78;;;22.10;;
59468;SDS011;45277;52.768;18.262;2023-10-19T05:33:29;40.22;;;22.02;;
59468;SDS011;45277;52.768;18.262;2023-10-19T05:35:00;35.45;;;19.92;;
59468;SDS011;45277;52.768;18.262;2023-10-19T05:36:35;38.55;;;20.95;;
59468;SDS011;45277;52.768;18.262;2023-10-19T05:38:07;38.78;;;20.02;;
59468;SDS011;45277;52.768;18.262;2023-10-19T05:39:38;40.03;;;21.92;;
59468;SDS011;45277;52.768;18.262;2023-10-19T05:41:09;41.80;;;23.42;;
59468;SDS011;45277;52.768;18.262;2023-10-19T05:42:42;42.22;;;23.63;;
59468;SDS011;45277;52.768;18.262;2023-10-19T05:44:13;48.58;;;23.88;;
59468;SDS011;45277;52.768;18.262;2023-10-19T05:45:44;39.92;;;22.25;;
59468;SDS011;45277;52.768;18.262;2023-10-19T05:47:16;42.15;;;23.50;;
59468;SDS011;45277;52.768;18.262;2023-10-19T05:48:48;44.92;;;23.55;;
59468;SDS011;45277;52.768;18.262;2023-10-19T05:50:23;43.83;;;23.25;;
59468;SDS011;45277;52.768;18.262;2023-10-19T05:51:55;45.53;;;24.85;;
59468;SDS011;45277;52.768;18.262;2023-10-19T05:53:27;44.65;;;23.73;;
59468;SDS011;45277;52.768;18.262;2023-10-19T05:55:00;47.35;;;24.05;;
59468;SDS011;45277;52.768;18.262;2023-10-19T05:56:31;42.67;;;23.65;;
59468;SDS011;45277;52.768;18.262;2023-10-19T05:58:05;46.13;;;24.50;;
59468;SDS011;45277;52.768;18.262;2023-10-19T05:59:36;44.80;;;23.55;;
59468;SDS011;45277;52.768;18.262;2023-10-19T06:01:08;42.08;;;23.38;;
59468;SDS011;45277;52.768;18.262;2023-10-19T06:02:43;44.53;;;21.30;;
59468;SDS011;45277;52.768;18.262;2023-10-19T06:04:15;47.17;;;22.00;;
59468;SDS011;45277;52.768;18.262;2023-10-19T06:05:47;41.10;;;22.45;;
59468;SDS011;45277;52.768;18.262;2023-10-19T06:07:18;49.08;;;25.42;;
59468;SDS011;45277;52.768;18.262;2023-10-19T06:08:49;58.10;;;33.13;;
59468;SDS011;45277;52.768;18.262;2023-10-19T06:10:24;49.35;;;27.10;;
59468;SDS011;45277;52.768;18.262;2023-10-19T06:11:55;44.50;;;25.63;;
59468;SDS011;45277;52.768;18.262;2023-10-19T06:13:27;43.05;;;22.40;;
59468;SDS011;45277;52.768;18.262;2023-10-19T06:14:58;45.78;;;24.48;;
59468;SDS011;45277;52.768;18.262;2023-10-19T06:16:31;48.45;;;25.30;;
59468;SDS011;45277;52.768;18.262;2023-10-19T06:18:02;39.22;;;23.23;;
59468;SDS011;45277;52.768;18.262;2023-10-19T06:19:34;38.17;;;22.38;;
59468;SDS011;45277;52.768;18.262;2023-10-19T06:21:06;36.90;;;20.77;;
59468;SDS011;45277;52.768;18.262;2023-10-19T06:22:37;39.28;;;22.65;;
59468;SDS011;45277;52.768;18.262;2023-10-19T06:24:09;41.95;;;23.65;;
59468;SDS011;45277;52.768;18.262;2023-10-19T06:25:44;42.65;;;22.35;;
59468;SDS011;45277;52.768;18.262;2023-10-19T06:27:16;39.20;;;21.92;;
59468;SDS011;45277;52.768;18.262;2023-10-19T06:28:47;38.00;;;20.42;;
59468;SDS011;45277;52.768;18.262;2023-10-19T06:30:21;42.58;;;22.48;;
59468;SDS011;45277;52.768;18.262;2023-10-19T06:31:54;40.00;;;19.98;;
59468;SDS011;45277;52.768;18.262;2023-10-19T06:33:25;34.90;;;19.73;;
59468;SDS011;45277;52.768;18.262;2023-10-19T06:34:56;42.65;;;21.40;;
59468;SDS011;45277;52.768;18.262;2023-10-19T06:36:28;39.22;;;20.67;;
59468;SDS011;45277;52.768;18.262;2023-10-19T06:38:03;38.95;;;20.17;;
59468;SDS011;45277;52.768;18.262;2023-10-19T06:39:34;38.45;;;19.45;;
59468;SDS011;45277;52.768;18.262;2023-10-19T06:41:12;32.60;;;19.42;;
59468;SDS011;45277;52.768;18.262;2023-10-19T06:42:44;34.05;;;20.27;;
59468;SDS011;45277;52.768;18.262;2023-10-19T06:44:16;34.50;;;19.38;;
59468;SDS011;45277;52.768;18.262;2023-10-19T06:45:47;34.40;;;19.25;;
59468;SDS011;45277;52.768;18.262;2023-10-19T06:47:19;34.35;;;17.90;;
59468;SDS011;45277;52.768;18.262;2023-10-19T06:48:51;31.80;;;17.60;;
59468;SDS011;45277;52.768;18.262;2023-10-19T06:50:26;28.08;;;14.82;;
59468;SDS011;45277;52.768;18.262;2023-10-19T06:51:58;25.77;;;15.13;;
59468;SDS011;45277;52.768;18.262;2023-10-19T06:53:30;28.52;;;15.40;;
59468;SDS011;45277;52.768;18.262;2023-10-19T06:55:03;24.38;;;14.95;;
59468;SDS011;45277;52.768;18.262;2023-10-19T06:56:36;22.13;;;14.70;;
59468;SDS011;45277;52.768;18.262;2023-10-19T06:58:09;23.38;;;13.30;;
59468;SDS011;45277;52.768;18.262;2023-10-19T06:59:40;23.08;;;14.23;;
59468;SDS011;45277;52.768;18.262;2023-10-19T07:01:12;24.13;;;14.27;;
59468;SDS011;45277;52.768;18.262;2023-10-19T07:02:47;29.15;;;14.13;;
59468;SDS011;45277;52.768;18.262;2023-10-19T07:04:22;20.88;;;12.88;;
59468;SDS011;45277;52.768;18.262;2023-10-19T07:05:53;21.38;;;13.77;;
59468;SDS011;45277;52.768;18.262;2023-10-19T07:07:25;20.58;;;12.40;;
59468;SDS011;45277;52.768;18.262;2023-10-19T07:08:56;22.15;;;13.57;;
59468;SDS011;45277;52.768;18.262;2023-10-19T07:10:29;20.88;;;12.52;;
59468;SDS011;45277;52.768;18.262;2023-10-19T07:12:00;23.90;;;13.45;;
59468;SDS011;45277;52.768;18.262;2023-10-19T07:13:31;20.27;;;12.93;;
59468;SDS011;45277;52.768;18.262;2023-10-19T07:15:05;20.00;;;12.65;;
59468;SDS011;45277;52.768;18.262;2023-10-19T07:16:44;19.13;;;12.48;;
59468;SDS011;45277;52.768;18.262;2023-10-19T07:18:15;18.15;;;12.40;;
59468;SDS011;45277;52.768;18.262;2023-10-19T07:19:47;24.60;;;12.10;;
59468;SDS011;45277;52.768;18.262;2023-10-19T07:21:19;20.75;;;11.80;;
59468;SDS011;45277;52.768;18.262;2023-10-19T07:22:53;23.10;;;12.40;;
59468;SDS011;45277;52.768;18.262;2023-10-19T07:24:25;21.55;;;11.35;;
59468;SDS011;45277;52.768;18.262;2023-10-19T07:28:57;22.95;;;12.73;;
59468;SDS011;45277;52.768;18.262;2023-10-19T07:30:28;27.75;;;11.95;;
59468;SDS011;45277;52.768;18.262;2023-10-19T07:32:01;21.83;;;12.50;;
59468;SDS011;45277;52.768;18.262;2023-10-19T07:33:34;23.02;;;12.75;;
59468;SDS011;45277;52.768;18.262;2023-10-19T07:35:09;26.05;;;12.38;;
59468;SDS011;45277;52.768;18.262;2023-10-19T07:36:41;18.88;;;11.35;;
59468;SDS011;45277;52.768;18.262;2023-10-19T07:38:15;20.73;;;11.65;;
59468;SDS011;45277;52.768;18.262;2023-10-19T07:39:48;20.05;;;11.43;;
59468;SDS011;45277;52.768;18.262;2023-10-19T07:41:21;17.65;;;11.13;;
59468;SDS011;45277;52.768;18.262;2023-10-19T07:42:53;18.10;;;10.65;;
59468;SDS011;45277;52.768;18.262;2023-10-19T07:44:27;19.77;;;10.88;;
59468;SDS011;45277;52.768;18.262;2023-10-19T07:46:01;19.52;;;11.48;;
59468;SDS011;45277;52.768;18.262;2023-10-19T07:47:32;19.75;;;10.82;;
59468;SDS011;45277;52.768;18.262;2023-10-19T07:49:04;21.02;;;10.73;;
59468;SDS011;45277;52.768;18.262;2023-10-19T07:50:37;18.05;;;9.55;;
59468;SDS011;45277;52.768;18.262;2023-10-19T07:52:11;16.92;;;10.27;;
59468;SDS011;45277;52.768;18.262;2023-10-19T07:53:43;21.02;;;11.50;;
59468;SDS011;45277;52.768;18.262;2023-10-19T07:55:15;17.00;;;11.00;;
59468;SDS011;45277;52.768;18.262;2023-10-19T07:56:48;21.48;;;10.60;;
59468;SDS011;45277;52.768;18.262;2023-10-19T07:58:21;16.30;;;9.95;;
59468;SDS011;45277;52.768;18.262;2023-10-19T07:59:52;23.23;;;11.52;;
59468;SDS011;45277;52.768;18.262;2023-10-19T08:01:27;17.67;;;10.57;;
59468;SDS011;45277;52.768;18.262;2023-10-19T08:02:59;23.20;;;12.35;;
59468;SDS011;45277;52.768;18.262;2023-10-19T08:04:31;23.83;;;12.73;;
59468;SDS011;45277;52.768;18.262;2023-10-19T08:06:03;22.33;;;11.73;;
59468;SDS011;45277;52.768;18.262;2023-10-19T08:07:35;23.42;;;12.27;;
59468;SDS011;45277;52.768;18.262;2023-10-19T08:09:07;21.50;;;11.85;;
59468;SDS011;45277;52.768;18.262;2023-10-19T08:10:41;21.08;;;11.93;;
59468;SDS011;45277;52.768;18.262;2023-10-19T08:12:13;21.13;;;12.00;;
59468;SDS011;45277;52.768;18.262;2023-10-19T08:13:44;23.08;;;11.13;;
59468;SDS011;45277;52.768;18.262;2023-10-19T08:15:16;17.98;;;10.45;;
59468;SDS011;45277;52.768;18.262;2023-10-19T08:16:49;17.35;;;10.68;;
59468;SDS011;45277;52.768;18.262;2023-10-19T08:18:20;20.00;;;11.57;;
59468;SDS011;45277;52.768;18.262;2023-10-19T08:19:52;22.92;;;11.85;;
59468;SDS011;45277;52.768;18.262;2023-10-19T08:21:23;16.48;;;11.05;;
59468;SDS011;45277;52.768;18.262;2023-10-19T08:22:56;21.75;;;11.07;;
59468;SDS011;45277;52.768;18.262;2023-10-19T08:24:28;17.05;;;10.98;;
59468;SDS011;45277;52.768;18.262;2023-10-19T08:26:02;15.52;;;10.05;;
59468;SDS011;45277;52.768;18.262;2023-10-19T08:27:37;17.38;;;10.90;;
59468;SDS011;45277;52.768;18.262;2023-10-19T08:29:10;20.80;;;12.35;;
59468;SDS011;45277;52.768;18.262;2023-10-19T08:30:45;19.33;;;11.52;;
59468;SDS011;45277;52.768;18.262;2023-10-19T08:32:27;18.13;;;11.30;;
59468;SDS011;45277;52.768;18.262;2023-10-19T08:33:58;22.05;;;12.07;;
59468;SDS011;45277;52.768;18.262;2023-10-19T08:35:30;19.40;;;10.10;;
59468;SDS011;45277;52.768;18.262;2023-10-19T08:37:02;18.75;;;10.27;;
59468;SDS011;45277;52.768;18.262;2023-10-19T08:38:35;22.35;;;11.43;;
59468;SDS011;45277;52.768;18.262;2023-10-19T08:40:07;15.80;;;10.73;;
59468;SDS011;45277;52.768;18.262;2023-10-19T08:41:45;17.17;;;10.40;;
59468;SDS011;45277;52.768;18.262;2023-10-19T08:43:19;19.35;;;11.70;;
59468;SDS011;45277;52.768;18.262;2023-10-19T08:44:52;14.30;;;10.23;;
59468;SDS011;45277;52.768;18.262;2023-10-19T08:46:23;19.60;;;11.38;;
59468;SDS011;45277;52.768;18.262;2023-10-19T08:47:56;17.05;;;11.07;;
59468;SDS011;45277;52.768;18.262;2023-10-19T08:49:35;17.95;;;10.77;;
59468;SDS011;45277;52.768;18.262;2023-10-19T08:51:08;23.80;;;10.65;;
59468;SDS011;45277;52.768;18.262;2023-10-19T08:52:41;16.73;;;10.80;;
59468;SDS011;45277;52.768;18.262;2023-10-19T08:54:14;22.35;;;11.45;;
59468;SDS011;45277;52.768;18.262;2023-10-19T08:55:45;18.17;;;11.93;;
59468;SDS011;45277;52.768;18.262;2023-10-19T08:57:18;20.80;;;11.05;;
59468;SDS011;45277;52.768;18.262;2023-10-19T08:58:50;19.52;;;10.60;;
59468;SDS011;45277;52.768;18.262;2023-10-19T09:00:22;17.17;;;9.52;;
59468;SDS011;45277;52.768;18.262;2023-10-19T09:02:02;15.65;;;10.02;;
59468;SDS011;45277;52.768;18.262;2023-10-19T09:03:34;18.67;;;11.25;;